INFORMACIÓN METAR y TAF
METAR FOR LEMG
ADDS - METARS form results

(2334 UTC 12 December 2019)
Data provider http://aviationweather.gov/metar/data/
 
METAR text: LEMG 122330Z 23003KT 190V260 9999 FEW045 BKN060 16/08 Q1022 NOSIG
Conditions at: LEMG (MALAGA (CIV/MIL), ES) observed 2330 UTC 12 December 2019
Temperature: 16.0°C (61°F)
Dewpoint: 8.0°C (46°F) [RH = 59%]
Pressure (altimeter): 30.18 inches Hg (1022.0 mb)
Winds: from the SW (230 degrees) at 3 MPH (3 knots; 1.5 m/s)
Visibility: 6 or more miles (10+ km)
Ceiling: 6000 feet AGL
Clouds: few clouds at 4500 feet AGL
broken clouds at 6000 feet AGL
Weather: no significant weather observed at this time

METAR text: LEMG 122300Z 29006KT 250V310 9999 FEW045 BKN060 16/08 Q1022 NOSIG
Conditions at: LEMG (MALAGA (CIV/MIL), ES) observed 2300 UTC 12 December 2019
Temperature: 16.0°C (61°F)
Dewpoint: 8.0°C (46°F) [RH = 59%]
Pressure (altimeter): 30.18 inches Hg (1022.0 mb)
Winds: from the WNW (290 degrees) at 7 MPH (6 knots; 3.1 m/s)
Visibility: 6 or more miles (10+ km)
Ceiling: 6000 feet AGL
Clouds: few clouds at 4500 feet AGL
broken clouds at 6000 feet AGL
Weather: no significant weather observed at this time

Forecast for: LEMG (MALAGA (CIV/MIL), ES)
Text: TAF LEMG 122300Z 1300/1324 31012KT CAVOK TX19/1313Z TN12/1322Z
Forecast period: 0000 UTC 13 December 2019 to 0000 UTC 14 December 2019
Forecast type: FROM: standard forecast or significant change
Winds: from the NW (310 degrees) at 14 MPH (12 knots; 6.2 m/s)
Visibility: 6 or more miles 10+ km)
Ceiling: unknown
Clouds: missing
Weather: no significant weather forecast for this period
Text: PROB40
Forecast period: 0800 to 1800 UTC 13 December 2019
Forecast type: TEMPORARY: The following changes expected for less than half the time period
Winds: from the NW (310 degrees) at 23 MPH (20 knots; 10.3 m/s)
gusting to 34 MPH (30 knots; 15.4 m/s)
Visibility: missing
Ceiling: unknown
Clouds: missing
Weather: no significant weather forecast for this period

MAPA DE AEROPUERTO

INFORMACIÓN DE PISTA
Pista 12 Longitud 9022 ft Ancho 148 ft
Elevación 52 ft Umbral desplazado 0 ft Rumbo de pista 119
Pista 30 Longitud 9022 ft Ancho 148 ft
Elevación 31 ft Umbral desplazado 0 ft Rumbo de pista 299
Pista 13 Longitud 10500 ft Ancho 148 ft
Elevación 52 ft Umbral desplazado 0 ft Rumbo de pista 133
Pista 31 Longitud 10500 ft Ancho 148 ft
Elevación 31 ft Umbral desplazado 0 ft Rumbo de pista 313

FRECUANCIAS DEL AEROPUERTO
Tipo A/D Nombre APP Frecuencia 123.85 MHZ
Tipo ATIS Nombre ATIS Frecuencia 120.375 MHZ
Tipo CLD Nombre CLR DEL Frecuencia 121.875 MHZ
Tipo GND Nombre GND-W Frecuencia 121.7 MHZ
Tipo GND Nombre GND-E Frecuencia 121.95 MHZ
Tipo TWR Nombre TWR-W (RWY Frecuencia 118.15 MHZ
Tipo TWR Nombre TWR-E (RWY Frecuencia 118.775 MHZ

RADIO AYUDAS DEL AEROPUERTO
Tipo VOR-DME Nombre Martin Frecuencia 112600 KHZ
Tipo VOR-DME Nombre Malaga Frecuencia 112000 KHZ
Tipo VOR-DME Nombre Malaga Frecuencia 113550 KHZ
Tipo NDB Nombre Malaga Frecuencia 330 KHZ